Time;durP1;ratioP1;P1;durP2;ratioP2;P2;SDS_P1;SDS_P2;PMS_P1;PMS_P2;Temp;Humidity;BMP_temperature;BMP_pressure;BME280_temperature;BME280_humidity;BME280_pressure;Samples;Min_cycle;Max_cycle;Signal;HPM_P1;HPM_P2
2021/03/13 00:00:33;;;;;;;5.93;2.10;;;7.90;99.90;;;;;;5072056;28;20562;-65
2021/03/13 00:02:59;;;;;;;4.63;2.23;;;7.90;99.90;;;;;;5071960;28;20751;-65
2021/03/13 00:05:27;;;;;;;2.53;2.33;;;7.90;99.90;;;;;;5071003;28;20495;-67
2021/03/13 00:07:53;;;;;;;8.10;2.63;;;7.80;99.90;;;;;;5071238;28;20393;-65
2021/03/13 00:10:19;;;;;;;6.07;2.67;;;7.80;99.90;;;;;;5073691;28;20389;-65
2021/03/13 00:12:45;;;;;;;9.47;2.80;;;7.80;99.90;;;;;;5074510;28;20997;-65
2021/03/13 00:15:14;;;;;;;4.20;2.20;;;7.80;99.90;;;;;;5075853;28;20408;-65
2021/03/13 00:17:42;;;;;;;3.97;2.47;;;7.80;99.90;;;;;;5075712;28;20155;-65
2021/03/13 00:20:09;;;;;;;6.50;2.53;;;7.80;99.90;;;;;;5075633;28;20831;-65
2021/03/13 00:22:35;;;;;;;4.60;2.70;;;7.80;99.90;;;;;;5075391;28;20551;-65
2021/03/13 00:25:00;;;;;;;4.90;2.40;;;7.80;99.90;;;;;;5075557;28;20480;-65
2021/03/13 00:27:26;;;;;;;7.20;2.47;;;7.80;99.90;;;;;;5075591;28;20592;-65
2021/03/13 00:29:51;;;;;;;4.73;2.30;;;7.80;99.90;;;;;;5075387;28;20209;-65
2021/03/13 00:32:17;;;;;;;10.90;3.63;;;7.80;99.90;;;;;;5075441;28;20171;-65
2021/03/13 00:34:42;;;;;;;6.53;2.93;;;7.80;99.90;;;;;;5075355;28;20227;-65
2021/03/13 00:37:08;;;;;;;8.27;2.60;;;7.80;99.90;;;;;;5075405;28;20156;-65
2021/03/13 00:39:33;;;;;;;8.13;2.87;;;7.80;99.90;;;;;;5075094;28;20298;-65
2021/03/13 00:41:59;;;;;;;5.80;3.00;;;7.70;99.90;;;;;;5075162;28;20162;-65
2021/03/13 00:44:24;;;;;;;11.63;3.73;;;7.70;99.90;;;;;;5075365;28;20636;-65
2021/03/13 00:46:50;;;;;;;4.73;2.50;;;7.70;99.90;;;;;;5075232;28;20212;-65
2021/03/13 00:49:15;;;;;;;6.67;1.93;;;7.70;99.90;;;;;;5075015;28;20212;-65
2021/03/13 00:51:41;;;;;;;3.00;2.10;;;7.70;99.90;;;;;;5075044;28;20188;-65
2021/03/13 00:54:06;;;;;;;6.40;2.60;;;7.60;99.90;;;;;;5075021;28;20159;-65
2021/03/13 00:56:32;;;;;;;10.90;2.50;;;7.60;99.90;;;;;;5074862;28;20189;-65
2021/03/13 00:58:57;;;;;;;6.90;2.70;;;7.50;99.90;;;;;;5074788;28;20168;-65
2021/03/13 01:01:23;;;;;;;7.30;2.90;;;7.50;99.90;;;;;;5074759;28;20504;-65
2021/03/13 01:03:49;;;;;;;4.27;2.60;;;7.50;99.90;;;;;;5074882;28;20566;-65
2021/03/13 01:06:14;;;;;;;5.40;2.63;;;7.40;99.90;;;;;;5074660;28;20158;-65
2021/03/13 01:08:40;;;;;;;5.63;2.50;;;7.40;99.90;;;;;;5075003;28;20602;-65
2021/03/13 01:11:05;;;;;;;8.90;2.90;;;7.40;99.90;;;;;;5074586;28;20158;-65
2021/03/13 01:13:31;;;;;;;4.60;2.87;;;7.40;99.90;;;;;;5074468;28;20527;-65
2021/03/13 01:15:56;;;;;;;5.60;2.60;;;7.30;99.90;;;;;;5075027;28;20162;-65
2021/03/13 01:18:22;;;;;;;7.77;3.57;;;7.30;99.90;;;;;;5074462;28;20177;-65
2021/03/13 01:20:50;;;;;;;8.47;3.23;;;7.20;99.90;;;;;;5074398;28;20184;-65
2021/03/13 01:23:15;;;;;;;6.30;3.73;;;7.20;99.90;;;;;;5074478;28;20186;-65
2021/03/13 01:25:41;;;;;;;6.40;4.00;;;7.10;99.90;;;;;;5073145;28;20398;-65
2021/03/13 01:28:06;;;;;;;4.97;3.90;;;7.10;99.90;;;;;;5074339;28;20619;-65
2021/03/13 01:30:32;;;;;;;6.60;3.60;;;7.00;99.90;;;;;;5074058;28;20192;-65
2021/03/13 01:32:58;;;;;;;5.30;3.20;;;7.00;99.90;;;;;;5074447;28;20164;-65
2021/03/13 01:35:25;;;;;;;5.27;3.20;;;7.00;99.90;;;;;;5074348;28;20161;-65
2021/03/13 01:37:52;;;;;;;7.07;3.00;;;6.90;99.90;;;;;;5074083;28;20157;-65
2021/03/13 01:40:18;;;;;;;5.77;4.40;;;6.90;99.90;;;;;;5074076;28;20407;-65
2021/03/13 01:42:46;;;;;;;4.00;3.20;;;6.80;99.90;;;;;;5072663;28;20447;-65
2021/03/13 01:45:14;;;;;;;8.90;3.60;;;6.80;99.90;;;;;;5072717;28;20398;-65
2021/03/13 01:47:40;;;;;;;8.50;3.70;;;6.80;99.90;;;;;;5073971;28;20415;-65
2021/03/13 01:50:08;;;;;;;5.73;3.37;;;6.80;99.90;;;;;;5074021;28;20392;-65
2021/03/13 01:52:34;;;;;;;5.20;2.90;;;6.80;99.90;;;;;;5073594;28;20497;-65
2021/03/13 01:55:01;;;;;;;5.37;3.10;;;6.80;99.90;;;;;;5073714;28;20482;-65
2021/03/13 01:57:27;;;;;;;5.10;3.67;;;6.70;99.90;;;;;;5073856;28;20551;-65
2021/03/13 01:59:53;;;;;;;5.60;3.80;;;6.80;99.90;;;;;;5073558;28;20888;-65
2021/03/13 02:02:18;;;;;;;6.90;3.77;;;6.80;99.90;;;;;;5073534;28;20973;-65
2021/03/13 02:04:44;;;;;;;5.70;3.80;;;6.70;99.90;;;;;;5073462;28;20177;-65
2021/03/13 02:07:22;;;;;;;5.47;3.23;;;6.70;99.90;;;;;;5073776;28;20260;-65
2021/03/13 02:16:09;;;;;;;5.03;3.40;;;6.60;99.90;;;;;;5131422;27;20570;-64
2021/03/13 02:19:05;;;;;;;8.67;4.23;;;6.60;99.90;;;;;;5130394;28;20392;-64
2021/03/13 02:21:36;;;;;;;6.60;3.60;;;6.60;99.90;;;;;;5121684;28;20403;-64
2021/03/13 02:27:08;;;;;;;7.17;3.03;;;6.50;99.90;;;;;;5131663;27;20509;-64
2021/03/13 02:32:17;;;;;;;6.63;3.90;;;6.60;99.90;;;;;;5131312;27;20567;-64
2021/03/13 02:34:45;;;;;;;7.10;3.87;;;6.50;99.90;;;;;;5131248;28;20392;-64
2021/03/13 02:37:23;;;;;;;5.13;3.97;;;6.50;99.90;;;;;;5131207;28;20427;-64
2021/03/13 02:39:52;;;;;;;6.27;4.57;;;6.50;99.90;;;;;;5111528;28;20402;-64
2021/03/13 02:42:20;;;;;;;10.27;4.67;;;6.50;99.90;;;;;;5110685;28;20382;-64
2021/03/13 02:44:47;;;;;;;6.50;5.13;;;6.50;99.90;;;;;;5110664;28;20378;-64
2021/03/13 02:47:14;;;;;;;10.93;5.60;;;6.50;99.90;;;;;;5109440;28;20994;-65
2021/03/13 02:49:44;;;;;;;7.73;5.50;;;6.50;99.90;;;;;;5110663;28;20931;-64
2021/03/13 02:52:10;;;;;;;9.83;7.00;;;6.40;99.90;;;;;;5110540;28;20433;-64
2021/03/13 02:54:39;;;;;;;8.13;5.30;;;6.40;99.90;;;;;;5110788;28;20392;-64
2021/03/13 02:57:08;;;;;;;6.00;5.40;;;6.40;99.90;;;;;;5130893;28;20384;-64
2021/03/13 02:59:37;;;;;;;7.20;5.70;;;6.40;99.90;;;;;;5130760;28;20432;-64
2021/03/13 03:02:02;;;;;;;7.53;5.33;;;6.40;99.90;;;;;;5130654;28;20391;-64
2021/03/13 03:04:28;;;;;;;7.20;5.53;;;6.40;99.90;;;;;;5130708;27;20381;-64
2021/03/13 03:06:56;;;;;;;6.13;5.30;;;6.40;99.90;;;;;;5129543;28;20163;-64
2021/03/13 03:09:23;;;;;;;6.00;4.13;;;6.30;99.90;;;;;;5130854;28;20282;-64
2021/03/13 03:11:50;;;;;;;6.27;4.70;;;6.30;99.90;;;;;;5129744;27;20453;-64
2021/03/13 03:14:18;;;;;;;4.70;4.30;;;6.30;99.90;;;;;;5130554;27;20386;-64
2021/03/13 03:16:47;;;;;;;5.97;4.43;;;6.30;99.90;;;;;;5129271;28;20551;-64
2021/03/13 03:19:16;;;;;;;5.97;4.70;;;6.20;99.90;;;;;;5130336;27;20508;-64
2021/03/13 03:21:43;;;;;;;5.17;4.13;;;6.20;99.90;;;;;;5129842;28;20398;-65
2021/03/13 03:24:10;;;;;;;6.93;4.20;;;6.20;99.90;;;;;;5130751;27;20417;-64
2021/03/13 03:26:36;;;;;;;6.13;4.00;;;6.20;99.90;;;;;;5130401;28;20870;-64
2021/03/13 03:29:01;;;;;;;4.90;4.10;;;6.20;99.90;;;;;;5128165;28;20408;-64
2021/03/13 03:31:27;;;;;;;4.23;3.00;;;6.20;99.90;;;;;;5129991;28;20452;-64
2021/03/13 03:33:52;;;;;;;6.00;4.23;;;6.20;99.90;;;;;;5130436;27;20166;-64
2021/03/13 03:36:18;;;;;;;3.70;3.37;;;6.20;99.90;;;;;;5130091;28;20155;-65
2021/03/13 03:38:44;;;;;;;6.00;3.60;;;6.20;99.90;;;;;;5130226;27;20152;-64
2021/03/13 03:41:10;;;;;;;4.00;3.20;;;6.20;99.90;;;;;;5130759;28;20169;-65
2021/03/13 03:43:39;;;;;;;3.00;2.70;;;6.20;99.90;;;;;;5115987;28;20751;-65
2021/03/13 03:46:06;;;;;;;2.90;2.60;;;6.20;99.90;;;;;;5115369;28;20653;-65
2021/03/13 03:48:33;;;;;;;3.90;2.50;;;6.20;99.90;;;;;;5116252;28;20442;-65
2021/03/13 03:51:00;;;;;;;2.70;2.50;;;6.20;99.90;;;;;;5116335;28;20441;-65
2021/03/13 03:53:33;;;;;;;3.00;2.40;;;6.20;99.90;;;;;;5099627;28;20772;-66
2021/03/13 03:56:01;;;;;;;1.80;1.70;;;6.20;99.90;;;;;;5096015;28;20756;-65
2021/03/13 03:58:32;;;;;;;2.90;2.00;;;6.20;99.90;;;;;;5095581;28;20398;-65
2021/03/13 04:00:58;;;;;;;3.07;2.03;;;6.20;99.90;;;;;;5095537;28;20426;-65
2021/03/13 04:03:25;;;;;;;2.23;1.77;;;6.20;99.90;;;;;;5095999;28;20421;-65
2021/03/13 04:05:53;;;;;;;2.50;1.60;;;6.20;99.90;;;;;;5095637;28;20425;-65
2021/03/13 04:08:20;;;;;;;1.73;1.50;;;6.20;99.90;;;;;;5095578;28;20397;-65
2021/03/13 04:10:47;;;;;;;2.33;1.30;;;6.20;99.90;;;;;;5095245;28;20440;-65
2021/03/13 04:13:16;;;;;;;2.63;1.40;;;6.20;99.90;;;;;;5095274;28;20398;-65
2021/03/13 04:15:44;;;;;;;1.73;1.30;;;6.20;99.90;;;;;;5095267;28;20391;-65
2021/03/13 04:18:10;;;;;;;1.90;1.70;;;6.20;99.90;;;;;;5095558;28;20502;-65
2021/03/13 04:20:37;;;;;;;3.00;1.60;;;6.20;99.90;;;;;;5096024;28;20457;-65
2021/03/13 04:23:04;;;;;;;2.03;1.30;;;6.20;99.90;;;;;;5095182;28;20397;-65
2021/03/13 04:25:31;;;;;;;2.93;1.43;;;6.30;99.90;;;;;;5095094;28;20420;-65
2021/03/13 04:27:58;;;;;;;1.40;1.10;;;6.30;99.90;;;;;;5095053;28;20406;-65
2021/03/13 04:30:24;;;;;;;1.57;1.30;;;6.30;99.90;;;;;;5094962;28;20833;-65
2021/03/13 04:32:53;;;;;;;1.10;1.00;;;6.30;99.90;;;;;;5095046;28;20412;-65
2021/03/13 04:35:20;;;;;;;2.40;1.30;;;6.30;99.90;;;;;;5095172;28;20482;-65
2021/03/13 04:37:48;;;;;;;1.20;1.10;;;6.30;99.90;;;;;;5095585;28;20409;-65
2021/03/13 04:40:15;;;;;;;1.50;1.30;;;6.20;99.90;;;;;;5094896;28;20877;-65
2021/03/13 04:42:42;;;;;;;2.40;1.30;;;6.30;99.90;;;;;;5094750;28;20391;-65
2021/03/13 04:45:09;;;;;;;3.57;1.57;;;6.30;99.90;;;;;;5093542;28;20465;-65
2021/03/13 04:47:37;;;;;;;2.30;1.43;;;6.30;99.90;;;;;;5094976;28;20410;-65
2021/03/13 04:50:05;;;;;;;1.30;1.20;;;6.30;99.90;;;;;;5094609;28;20409;-65
2021/03/13 04:52:30;;;;;;;1.40;1.30;;;6.30;99.90;;;;;;5093275;28;20413;-65
2021/03/13 04:54:56;;;;;;;2.17;1.50;;;6.30;99.90;;;;;;5105145;28;20483;-65
2021/03/13 04:57:22;;;;;;;1.40;1.30;;;6.30;99.90;;;;;;5114864;28;20190;-66
2021/03/13 04:59:49;;;;;;;1.23;1.10;;;6.30;99.90;;;;;;5115356;28;20619;-65
2021/03/13 05:02:14;;;;;;;1.30;1.10;;;6.30;99.90;;;;;;5113554;28;20798;-65
2021/03/13 05:04:40;;;;;;;1.83;1.23;;;6.30;99.90;;;;;;5114920;28;20393;-65
2021/03/13 05:07:05;;;;;;;1.20;1.00;;;6.30;99.90;;;;;;5114601;28;20154;-65
2021/03/13 05:09:31;;;;;;;2.50;1.10;;;6.30;99.90;;;;;;5114605;28;20163;-65
2021/03/13 05:11:56;;;;;;;1.43;1.20;;;6.30;99.90;;;;;;5112315;28;20513;-65
2021/03/13 05:14:22;;;;;;;2.23;1.07;;;6.30;99.90;;;;;;5114789;28;20188;-65
2021/03/13 05:16:47;;;;;;;1.93;1.33;;;6.30;99.90;;;;;;5114708;28;20163;-65
2021/03/13 05:19:13;;;;;;;1.83;1.10;;;6.30;99.90;;;;;;5114723;28;20158;-65
2021/03/13 05:21:39;;;;;;;2.60;1.20;;;6.30;99.90;;;;;;5114332;28;20159;-65
2021/03/13 05:24:05;;;;;;;1.70;1.33;;;6.30;99.90;;;;;;5113378;28;20186;-65
2021/03/13 05:26:30;;;;;;;2.00;1.37;;;6.30;99.90;;;;;;5114552;28;20155;-65
2021/03/13 05:28:56;;;;;;;1.93;1.23;;;6.40;99.90;;;;;;5113450;28;20433;-65
2021/03/13 05:31:22;;;;;;;2.60;1.23;;;6.40;99.90;;;;;;5114043;28;20210;-65
2021/03/13 05:33:48;;;;;;;1.80;1.07;;;6.40;99.90;;;;;;5114384;28;20147;-65
2021/03/13 05:36:14;;;;;;;2.50;1.10;;;6.40;99.90;;;;;;5114091;28;20791;-65
2021/03/13 05:38:39;;;;;;;1.57;1.10;;;6.40;99.90;;;;;;5114129;28;20239;-65
2021/03/13 05:41:05;;;;;;;3.03;0.93;;;6.40;99.90;;;;;;5114251;28;20256;-65
2021/03/13 05:43:33;;;;;;;1.33;1.13;;;6.50;99.90;;;;;;5114013;28;20251;-65
2021/03/13 05:46:01;;;;;;;2.90;1.30;;;6.50;99.90;;;;;;5113074;28;21016;-65
2021/03/13 05:48:30;;;;;;;1.27;1.07;;;6.50;99.90;;;;;;5113995;28;20528;-65
2021/03/13 05:50:59;;;;;;;1.30;1.17;;;6.60;99.90;;;;;;5113735;28;20527;-65
2021/03/13 05:53:25;;;;;;;3.13;1.60;;;6.60;99.90;;;;;;5097358;28;20917;-65
2021/03/13 05:55:54;;;;;;;1.87;1.20;;;6.60;99.90;;;;;;5093502;28;20757;-65
2021/03/13 05:58:22;;;;;;;0.90;0.80;;;6.60;99.90;;;;;;5093356;28;20392;-65
2021/03/13 06:00:48;;;;;;;1.30;1.03;;;6.60;99.90;;;;;;5093468;28;20389;-65
2021/03/13 06:03:15;;;;;;;1.43;1.10;;;6.60;99.90;;;;;;5092794;28;20416;-65
2021/03/13 06:05:44;;;;;;;2.00;1.03;;;6.70;99.90;;;;;;5093118;28;20430;-66
2021/03/13 06:08:11;;;;;;;3.50;1.93;;;6.70;99.90;;;;;;5092254;28;20397;-65
2021/03/13 06:10:37;;;;;;;1.23;1.03;;;6.70;99.90;;;;;;5093141;28;20460;-65
2021/03/13 06:13:03;;;;;;;3.00;1.00;;;6.80;99.90;;;;;;5093216;28;20387;-65
2021/03/13 06:15:29;;;;;;;2.30;1.40;;;6.80;99.90;;;;;;5093216;28;20208;-65
2021/03/13 06:25:44;;;;;;;1.60;1.20;;;6.80;99.90;;;;;;5111079;27;20508;-66
2021/03/13 06:28:13;;;;;;;1.83;1.10;;;6.90;99.90;;;;;;5111047;28;20397;-66
2021/03/13 06:30:42;;;;;;;1.57;0.90;;;6.90;99.90;;;;;;5110857;28;20796;-66
2021/03/13 06:33:32;;;;;;;3.90;1.17;;;6.90;99.90;;;;;;5109782;28;20910;-66
2021/03/13 06:36:00;;;;;;;2.17;1.27;;;6.90;99.90;;;;;;5105749;28;20812;-66
2021/03/13 06:38:28;;;;;;;4.30;1.37;;;6.90;99.90;;;;;;5090543;28;20440;-66
2021/03/13 06:40:58;;;;;;;1.50;1.00;;;6.90;99.90;;;;;;5090157;28;20413;-66
2021/03/13 06:43:29;;;;;;;3.40;1.30;;;6.90;99.90;;;;;;5090267;28;20424;-66
2021/03/13 06:46:04;;;;;;;3.60;1.37;;;6.90;99.90;;;;;;5090026;28;20426;-66
2021/03/13 06:48:35;;;;;;;2.70;1.60;;;7.00;99.90;;;;;;5089052;28;20416;-66
2021/03/13 06:56:39;;;;;;;2.17;1.43;;;7.00;99.90;;;;;;5131405;27;20869;-65
2021/03/13 06:59:31;;;;;;;3.80;1.60;;;7.10;99.90;;;;;;5131424;28;20399;-65
2021/03/13 07:02:03;;;;;;;3.70;2.03;;;7.20;99.90;;;;;;5131955;28;20398;-65
2021/03/13 07:04:31;;;;;;;2.17;1.43;;;7.20;99.90;;;;;;5131342;28;20405;-65
2021/03/13 07:06:57;;;;;;;4.07;1.90;;;7.20;99.90;;;;;;5131484;28;20466;-65
2021/03/13 07:12:29;;;;;;;2.70;1.67;;;7.30;99.90;;;;;;5090614;28;20503;-66
2021/03/13 07:15:10;;;;;;;1.60;1.37;;;7.30;99.90;;;;;;5090884;28;20377;-66
2021/03/13 07:17:37;;;;;;;4.83;1.50;;;7.30;99.90;;;;;;5090405;28;20421;-66
2021/03/13 07:20:03;;;;;;;2.43;1.50;;;7.30;99.90;;;;;;5090400;28;20397;-66
2021/03/13 07:22:29;;;;;;;4.00;1.60;;;7.40;99.90;;;;;;5090238;28;20426;-66
2021/03/13 07:24:58;;;;;;;2.70;1.30;;;7.40;99.90;;;;;;5090407;28;20421;-66
2021/03/13 07:27:26;;;;;;;3.07;1.20;;;7.40;99.90;;;;;;5081861;28;20196;-66
2021/03/13 07:29:52;;;;;;;2.80;1.10;;;7.40;99.90;;;;;;5070017;28;20395;-66
2021/03/13 07:32:20;;;;;;;4.67;1.40;;;7.50;99.90;;;;;;5069863;28;20501;-66
2021/03/13 07:34:47;;;;;;;3.20;1.43;;;7.50;99.90;;;;;;5070253;28;20468;-66
2021/03/13 07:37:17;;;;;;;2.23;1.00;;;7.50;99.90;;;;;;5069939;28;20807;-66
2021/03/13 07:39:46;;;;;;;1.83;1.20;;;7.50;99.90;;;;;;5069810;28;20392;-66
2021/03/13 07:42:28;;;;;;;1.43;1.13;;;7.60;99.90;;;;;;5069976;28;20444;-66
2021/03/13 07:44:54;;;;;;;2.60;1.63;;;7.60;99.90;;;;;;5070342;28;20420;-66
2021/03/13 07:47:20;;;;;;;2.33;1.30;;;7.60;99.90;;;;;;5069521;28;20435;-66
2021/03/13 07:49:46;;;;;;;1.60;0.90;;;7.60;99.90;;;;;;5069884;28;20393;-66
2021/03/13 07:52:13;;;;;;;1.43;1.03;;;7.60;99.90;;;;;;5069201;28;20459;-66
2021/03/13 07:54:42;;;;;;;1.67;1.10;;;7.60;99.90;;;;;;5069905;28;20385;-66
2021/03/13 07:57:10;;;;;;;2.60;1.13;;;7.50;99.90;;;;;;5068462;28;20465;-66
2021/03/13 07:59:48;;;;;;;1.33;1.07;;;7.40;99.90;;;;;;5068065;28;20440;-66
2021/03/13 08:07:59;;;;;;;1.87;0.80;;;7.30;99.90;;;;;;5131409;27;21103;-66
2021/03/13 08:16:18;;;;;;;4.63;1.20;;;6.90;99.90;;;;;;5090493;28;20879;-66
2021/03/13 08:23:58;;;;;;;1.67;1.10;;;6.60;99.90;;;;;;5110993;27;20505;-66
2021/03/13 08:29:00;;;;;;;2.30;0.83;;;6.70;99.90;;;;;;5090608;28;20790;-66
2021/03/13 08:39:23;;;;;;;2.53;1.10;;;6.80;99.90;;;;;;5131466;27;20551;-65
2021/03/13 08:47:09;;;;;;;2.73;1.13;;;7.00;99.90;;;;;;5131354;27;20569;-65
2021/03/13 08:54:54;;;;;;;1.20;1.10;;;7.00;99.90;;;;;;5110940;27;20879;-65
2021/03/13 08:59:59;;;;;;;4.33;1.20;;;7.10;99.90;;;;;;5131276;27;20920;-65
2021/03/13 09:02:32;;;;;;;3.53;1.47;;;7.20;99.90;;;;;;5130368;28;20761;-65
2021/03/13 09:05:16;;;;;;;2.13;1.10;;;7.30;99.90;;;;;;5131448;28;20391;-65
2021/03/13 09:07:50;;;;;;;2.03;1.20;;;7.40;99.90;;;;;;5131285;28;20381;-65
2021/03/13 09:10:16;;;;;;;2.20;1.17;;;7.40;99.90;;;;;;5116287;28;20428;-65
2021/03/13 09:12:44;;;;;;;2.57;1.00;;;7.50;99.90;;;;;;5110550;28;20389;-65
2021/03/13 09:15:10;;;;;;;1.70;1.00;;;7.50;99.90;;;;;;5110946;28;20878;-65
2021/03/13 09:17:36;;;;;;;2.03;1.10;;;7.60;99.90;;;;;;5110928;28;20385;-65
2021/03/13 09:22:41;;;;;;;2.33;0.90;;;7.60;99.90;;;;;;5090560;27;20549;-65
2021/03/13 09:27:43;;;;;;;6.60;1.30;;;7.70;99.90;;;;;;5072106;27;21022;-64
2021/03/13 09:30:13;;;;;;;3.93;1.00;;;7.90;99.90;;;;;;5070528;28;20427;-65
2021/03/13 09:32:45;;;;;;;2.60;1.53;;;7.90;99.90;;;;;;5070281;28;20761;-65
2021/03/13 09:35:11;;;;;;;2.60;1.50;;;7.90;99.90;;;;;;5068864;28;20380;-65
2021/03/13 09:37:38;;;;;;;5.73;1.60;;;8.00;99.90;;;;;;5070368;28;20424;-65
2021/03/13 09:42:47;;;;;;;2.50;1.33;;;8.00;99.90;;;;;;5109155;27;20600;-66
2021/03/13 09:45:16;;;;;;;3.40;1.60;;;8.10;99.90;;;;;;5090690;28;20392;-66
2021/03/13 09:47:47;;;;;;;4.33;1.43;;;8.10;99.90;;;;;;5089436;28;20950;-66
2021/03/13 09:52:51;;;;;;;3.73;1.33;;;8.00;99.90;;;;;;5090343;28;20513;-65
2021/03/13 09:57:57;;;;;;;3.53;1.70;;;8.10;99.90;;;;;;5090704;28;20506;-66
2021/03/13 10:00:28;;;;;;;5.10;2.27;;;8.20;99.90;;;;;;5083245;28;20400;-66
2021/03/13 10:02:56;;;;;;;5.00;2.13;;;8.30;99.90;;;;;;5070178;28;20434;-66
2021/03/13 10:05:26;;;;;;;4.77;1.87;;;8.30;99.90;;;;;;5070075;28;20385;-65
2021/03/13 10:07:52;;;;;;;7.17;1.90;;;8.40;99.90;;;;;;5070333;28;20735;-66
2021/03/13 10:10:22;;;;;;;5.20;2.90;;;8.40;99.90;;;;;;5070144;28;20950;-65
2021/03/13 10:25:56;;;;;;;7.10;2.03;;;8.60;99.90;;;;;;5090433;27;20880;-65
2021/03/13 10:31:07;;;;;;;8.40;2.70;;;8.70;99.90;;;;;;5131402;27;20553;-66
2021/03/13 10:33:34;;;;;;;5.10;2.23;;;8.80;99.90;;;;;;5130809;28;20407;-66
2021/03/13 10:36:00;;;;;;;6.37;3.03;;;8.90;99.90;;;;;;5110925;28;20394;-66
2021/03/13 10:38:26;;;;;;;4.60;1.93;;;9.00;99.90;;;;;;5109682;28;20388;-66
2021/03/13 10:40:52;;;;;;;7.30;2.10;;;9.10;99.90;;;;;;5110933;28;20416;-66
2021/03/13 10:43:31;;;;;;;4.90;2.40;;;9.10;99.90;;;;;;5109240;28;20423;-66
2021/03/13 10:48:35;;;;;;;11.00;2.40;;;9.20;99.90;;;;;;5090563;28;20551;-65
2021/03/13 10:51:02;;;;;;;7.00;2.47;;;9.50;99.90;;;;;;5086423;28;20456;-65
2021/03/13 10:53:34;;;;;;;5.97;2.40;;;9.50;99.90;;;;;;5086914;28;20974;-65
2021/03/13 10:56:02;;;;;;;4.80;1.97;;;9.60;99.90;;;;;;5090637;28;20795;-65
2021/03/13 10:58:30;;;;;;;13.57;2.43;;;9.80;99.90;;;;;;5089353;28;20390;-65
2021/03/13 11:00:57;;;;;;;7.60;1.70;;;9.80;99.90;;;;;;5090391;28;20416;-65
2021/03/13 11:03:22;;;;;;;6.80;2.40;;;9.90;99.90;;;;;;5090906;28;20394;-65
2021/03/13 11:05:51;;;;;;;10.63;2.70;;;10.00;99.90;;;;;;5090150;28;20915;-65
2021/03/13 11:08:18;;;;;;;6.77;1.77;;;10.10;99.90;;;;;;5089478;28;20529;-65
2021/03/13 11:10:44;;;;;;;6.60;3.20;;;10.10;99.90;;;;;;5089063;28;20456;-65
2021/03/13 11:13:10;;;;;;;7.53;2.70;;;10.00;99.90;;;;;;5089997;28;20423;-65
2021/03/13 11:15:35;;;;;;;5.70;2.60;;;10.00;99.90;;;;;;5090000;28;20166;-65
2021/03/13 11:18:01;;;;;;;10.10;3.00;;;9.90;99.90;;;;;;5090294;28;20242;-65
2021/03/13 11:20:28;;;;;;;5.40;2.60;;;9.80;99.90;;;;;;5089838;28;20163;-65
2021/03/13 11:22:53;;;;;;;9.13;2.70;;;9.80;99.90;;;;;;5089852;28;20180;-65
2021/03/13 11:25:19;;;;;;;7.20;2.53;;;9.90;99.90;;;;;;5088965;28;20905;-65
2021/03/13 11:27:44;;;;;;;6.53;2.20;;;9.90;99.90;;;;;;5090125;28;20203;-65
2021/03/13 11:30:10;;;;;;;8.30;2.30;;;9.90;99.90;;;;;;5090106;28;20165;-65
2021/03/13 11:32:37;;;;;;;8.20;2.03;;;10.00;99.90;;;;;;5089685;28;20522;-65
2021/03/13 11:35:05;;;;;;;10.53;2.20;;;10.10;99.90;;;;;;5089889;28;20473;-65
2021/03/13 11:37:30;;;;;;;9.53;3.20;;;10.10;99.90;;;;;;5089628;28;20873;-65
2021/03/13 11:39:56;;;;;;;6.77;2.47;;;10.10;99.90;;;;;;5089514;28;20438;-65
2021/03/13 11:42:27;;;;;;;9.40;2.80;;;10.10;99.90;;;;;;5088756;28;20653;-65
2021/03/13 11:44:54;;;;;;;7.53;2.50;;;10.20;99.90;;;;;;5089858;28;20210;-65
2021/03/13 11:47:20;;;;;;;7.63;2.80;;;10.10;99.90;;;;;;5089254;28;20464;-65
2021/03/13 11:49:46;;;;;;;9.83;2.00;;;10.20;99.90;;;;;;5089276;28;20402;-65
2021/03/13 11:52:11;;;;;;;10.03;2.33;;;10.20;99.90;;;;;;5074348;28;20427;-66
2021/03/13 11:54:37;;;;;;;9.23;2.87;;;10.30;99.90;;;;;;5068898;28;20157;-66
2021/03/13 11:57:03;;;;;;;5.10;2.17;;;10.30;99.90;;;;;;5069475;28;20161;-66
2021/03/13 11:59:29;;;;;;;6.00;2.10;;;10.30;99.90;;;;;;5058627;28;20269;-66
2021/03/13 12:01:54;;;;;;;10.30;2.70;;;10.30;99.90;;;;;;5055584;28;20407;-66
2021/03/13 12:04:20;;;;;;;8.57;2.83;;;10.40;99.90;;;;;;5055676;28;20240;-66
2021/03/13 12:06:45;;;;;;;9.10;3.13;;;10.40;99.90;;;;;;5055507;28;20647;-66
2021/03/13 12:09:11;;;;;;;7.83;2.30;;;10.50;99.90;;;;;;5055392;28;20204;-66
2021/03/13 12:11:36;;;;;;;9.17;3.10;;;10.50;99.90;;;;;;5055771;28;20169;-66
2021/03/13 12:14:02;;;;;;;6.50;2.10;;;10.60;99.90;;;;;;5055520;28;20165;-66
2021/03/13 12:16:28;;;;;;;7.93;2.80;;;10.70;99.90;;;;;;5056185;28;20554;-66
2021/03/13 12:18:55;;;;;;;9.30;3.00;;;10.80;99.90;;;;;;5055410;28;20469;-66
2021/03/13 12:21:21;;;;;;;9.00;3.20;;;10.80;99.90;;;;;;5055450;28;20209;-66
2021/03/13 12:23:47;;;;;;;10.10;2.63;;;10.70;99.90;;;;;;5055295;28;20402;-66
2021/03/13 12:26:12;;;;;;;14.80;3.93;;;10.70;99.90;;;;;;5055506;28;20408;-66
2021/03/13 12:28:38;;;;;;;10.83;3.37;;;10.60;99.90;;;;;;5055444;28;20162;-66
2021/03/13 12:31:03;;;;;;;9.90;2.93;;;10.60;99.90;;;;;;5055308;28;20162;-65
2021/03/13 12:33:29;;;;;;;7.73;3.23;;;10.50;99.90;;;;;;5055877;28;20273;-66
2021/03/13 12:35:55;;;;;;;5.97;3.17;;;10.50;99.90;;;;;;5055160;28;20629;-66
2021/03/13 12:38:20;;;;;;;12.53;3.87;;;10.50;99.90;;;;;;5055427;28;20288;-66
2021/03/13 12:40:46;;;;;;;9.73;2.93;;;10.40;99.90;;;;;;5053918;28;20618;-66
2021/03/13 12:43:11;;;;;;;9.23;2.50;;;10.40;99.90;;;;;;5054843;28;20218;-66
2021/03/13 12:45:37;;;;;;;3.27;1.50;;;10.20;99.90;;;;;;5054726;28;20215;-66
2021/03/13 12:48:03;;;;;;;4.07;2.20;;;10.00;99.90;;;;;;5054594;28;20207;-65
2021/03/13 12:50:28;;;;;;;5.03;2.17;;;9.80;99.90;;;;;;5055381;28;20630;-66
2021/03/13 12:52:54;;;;;;;8.63;2.27;;;9.70;99.90;;;;;;5054700;28;20163;-66
2021/03/13 12:55:20;;;;;;;5.50;2.23;;;9.60;99.90;;;;;;5054866;28;20562;-66
2021/03/13 12:57:46;;;;;;;4.90;2.00;;;9.70;99.90;;;;;;5054796;28;20227;-66
2021/03/13 13:00:12;;;;;;;4.80;1.70;;;9.70;99.90;;;;;;5053538;28;20399;-65
2021/03/13 13:02:38;;;;;;;5.07;2.70;;;9.70;99.90;;;;;;5053299;28;20393;-66
2021/03/13 13:05:04;;;;;;;10.07;2.63;;;9.60;99.90;;;;;;5054753;28;20880;-65
2021/03/13 13:07:30;;;;;;;6.17;2.37;;;9.40;99.90;;;;;;5055199;28;20645;-66
2021/03/13 13:09:55;;;;;;;10.30;2.07;;;9.40;99.90;;;;;;5053418;28;20423;-65
2021/03/13 13:12:21;;;;;;;9.67;2.07;;;9.50;99.90;;;;;;5054164;28;20148;-66
2021/03/13 13:14:47;;;;;;;9.20;2.40;;;9.60;99.90;;;;;;5054175;28;20152;-66
2021/03/13 13:17:12;;;;;;;6.13;2.40;;;9.60;99.90;;;;;;5054598;28;20164;-65
2021/03/13 13:19:38;;;;;;;11.80;2.40;;;9.70;99.90;;;;;;5054746;28;20401;-66
2021/03/13 13:22:04;;;;;;;5.67;2.97;;;9.70;99.90;;;;;;5054114;28;20160;-66
2021/03/13 13:24:29;;;;;;;6.83;2.07;;;9.70;99.90;;;;;;5053413;28;20188;-66
2021/03/13 13:26:55;;;;;;;7.23;2.40;;;9.60;99.90;;;;;;5054022;28;20191;-65
2021/03/13 13:29:23;;;;;;;9.93;3.03;;;9.60;99.90;;;;;;5054105;28;20159;-66
2021/03/13 13:31:49;;;;;;;10.73;3.77;;;9.60;99.90;;;;;;5054016;28;20149;-66
2021/03/13 13:34:14;;;;;;;11.17;3.37;;;9.60;99.90;;;;;;5052731;28;20399;-65
2021/03/13 13:36:40;;;;;;;7.67;3.63;;;9.70;99.90;;;;;;5053831;28;20170;-66
2021/03/13 13:39:06;;;;;;;6.30;2.80;;;9.70;99.90;;;;;;5053990;28;20632;-65
2021/03/13 13:41:32;;;;;;;10.47;3.00;;;9.60;99.90;;;;;;5054317;28;20835;-66
2021/03/13 13:43:58;;;;;;;8.33;2.77;;;9.60;99.90;;;;;;5052563;28;20383;-65
2021/03/13 13:46:24;;;;;;;12.90;3.30;;;9.70;99.90;;;;;;5053783;28;20426;-66
2021/03/13 13:48:49;;;;;;;7.13;3.00;;;9.70;99.90;;;;;;5053624;28;20158;-65
2021/03/13 13:51:16;;;;;;;8.93;4.13;;;9.80;99.90;;;;;;5053486;28;20176;-66
2021/03/13 13:53:42;;;;;;;9.00;2.63;;;9.90;99.90;;;;;;5053629;28;20168;-65
2021/03/13 13:56:07;;;;;;;6.33;2.73;;;10.00;99.90;;;;;;5053471;28;20388;-66
2021/03/13 13:58:33;;;;;;;9.23;2.13;;;10.00;99.90;;;;;;5062278;28;20188;-66
2021/03/13 14:00:59;;;;;;;11.17;3.27;;;10.10;99.90;;;;;;5073412;28;20298;-66
2021/03/13 14:03:24;;;;;;;10.10;3.93;;;10.20;99.90;;;;;;5073118;28;20165;-66
2021/03/13 14:05:50;;;;;;;11.80;4.10;;;10.30;99.90;;;;;;5073315;28;20167;-66
2021/03/13 14:08:15;;;;;;;8.30;3.77;;;10.20;99.90;;;;;;5073278;28;20226;-66
2021/03/13 14:10:41;;;;;;;8.97;3.10;;;10.10;99.90;;;;;;5073402;28;20191;-66
2021/03/13 14:13:06;;;;;;;5.13;3.40;;;10.00;99.90;;;;;;5073375;28;20153;-66
2021/03/13 14:15:32;;;;;;;12.47;3.83;;;9.90;99.90;;;;;;5072456;28;20168;-65
2021/03/13 14:17:57;;;;;;;6.13;2.80;;;9.90;99.90;;;;;;5073283;28;20189;-65
2021/03/13 14:20:23;;;;;;;5.33;2.27;;;9.80;99.90;;;;;;5073083;28;20517;-66
2021/03/13 14:22:50;;;;;;;7.57;2.63;;;9.80;99.90;;;;;;5072786;28;20183;-66
2021/03/13 14:25:17;;;;;;;4.23;1.60;;;9.50;99.90;;;;;;5073701;28;20612;-65
2021/03/13 14:27:43;;;;;;;7.67;2.83;;;9.50;99.90;;;;;;5071941;28;20430;-66
2021/03/13 14:30:11;;;;;;;6.50;2.57;;;9.50;99.90;;;;;;5072999;28;20403;-66
2021/03/13 14:32:38;;;;;;;10.10;2.50;;;9.60;99.90;;;;;;5063817;28;20475;-66
2021/03/13 14:35:08;;;;;;;4.60;2.73;;;9.70;99.90;;;;;;5051967;28;20403;-65